createdAt,value
2024-03-25T00:00:26.363Z,62.06
2024-03-25T00:03:17.916Z,61.92
2024-03-25T00:05:49.463Z,61.93
2024-03-25T00:08:21.017Z,62.07
2024-03-25T00:10:52.582Z,62.01
2024-03-25T00:13:24.235Z,61.97
2024-03-25T00:15:55.888Z,61.92
2024-03-25T00:18:27.656Z,62.10
2024-03-25T00:20:57.563Z,62.01
2024-03-25T00:23:29.134Z,62.26
2024-03-25T00:26:00.675Z,61.95
2024-03-25T00:28:32.234Z,61.84
2024-03-25T00:31:03.852Z,62.27
2024-03-25T00:33:35.546Z,62.22
2024-03-25T00:36:08.723Z,62.23
2024-03-25T00:38:40.294Z,62.31
2024-03-25T00:41:11.848Z,62.38
2024-03-25T00:43:44.639Z,62.53
2024-03-25T00:46:16.189Z,62.51
2024-03-25T00:48:47.744Z,62.57
2024-03-25T00:51:19.302Z,62.60
2024-03-25T00:53:50.862Z,62.44
2024-03-25T00:56:22.412Z,62.63
2024-03-25T00:58:54.389Z,62.55
2024-03-25T01:01:25.930Z,62.78
2024-03-25T01:03:57.501Z,62.89
2024-03-25T01:06:29.046Z,63.00
2024-03-25T01:09:00.604Z,62.78
2024-03-25T01:11:32.299Z,62.88
2024-03-25T01:14:03.918Z,63.22
2024-03-25T01:16:36.493Z,63.34
2024-03-25T01:19:08.050Z,63.62
2024-03-25T01:21:40.019Z,63.47
2024-03-25T01:24:11.564Z,63.43
2024-03-25T01:26:43.243Z,63.60
2024-03-25T01:29:14.676Z,63.65
2024-03-25T01:31:46.231Z,63.68
2024-03-25T01:34:17.788Z,63.91
2024-03-25T01:36:49.353Z,63.63
2024-03-25T01:39:20.899Z,63.68
2024-03-25T01:41:51.027Z,63.76
2024-03-25T01:44:22.574Z,63.98
2024-03-25T01:46:55.921Z,63.92
2024-03-25T01:49:27.940Z,64.06
2024-03-25T01:52:00.934Z,64.09
2024-03-25T01:54:34.362Z,64.28
2024-03-25T01:57:07.317Z,64.19
2024-03-25T01:59:39.896Z,64.56
2024-03-25T02:02:14.728Z,64.47
2024-03-25T02:04:47.308Z,64.56
2024-03-25T02:07:20.848Z,64.82
2024-03-25T02:09:54.516Z,64.69
2024-03-25T02:12:26.872Z,64.90
2024-03-25T02:15:00.152Z,64.78
2024-03-25T02:17:32.249Z,65.16
2024-03-25T02:20:04.112Z,64.74
2024-03-25T02:22:37.615Z,65.22
2024-03-25T02:25:11.624Z,65.21
2024-03-25T02:27:43.182Z,65.30
2024-03-25T02:30:16.635Z,65.21
2024-03-25T02:32:48.141Z,65.35
2024-03-25T02:35:19.890Z,65.65
2024-03-25T02:37:53.092Z,65.44
2024-03-25T02:40:25.261Z,65.66
2024-03-25T02:42:56.812Z,65.60
2024-03-25T02:45:28.571Z,65.85
2024-03-25T02:47:58.692Z,65.57
2024-03-25T02:50:30.254Z,65.85
2024-03-25T02:53:01.840Z,66.45
2024-03-25T02:55:33.363Z,66.35
2024-03-25T02:58:05.136Z,66.34
2024-03-25T03:00:35.651Z,66.40
2024-03-25T03:03:07.334Z,66.65
2024-03-25T03:05:38.980Z,66.38
2024-03-25T03:08:10.930Z,66.46
2024-03-25T03:10:42.495Z,66.29
2024-03-25T03:13:14.049Z,66.45
2024-03-25T03:15:48.666Z,66.45
2024-03-25T03:18:20.229Z,66.55
2024-03-25T03:20:51.783Z,66.54
2024-03-25T03:23:23.692Z,66.54
2024-03-25T03:25:55.306Z,66.43
2024-03-25T03:28:26.865Z,66.88
2024-03-25T03:30:58.407Z,66.69
2024-03-25T03:33:29.963Z,66.63
2024-03-25T03:36:01.516Z,66.87
2024-03-25T03:38:33.180Z,66.70
2024-03-25T03:41:06.204Z,66.80
2024-03-25T03:43:37.820Z,66.43
2024-03-25T03:46:09.376Z,66.64
2024-03-25T03:48:41.134Z,66.69
2024-03-25T03:51:12.526Z,67.03
2024-03-25T03:53:44.041Z,67.03
2024-03-25T03:56:15.619Z,67.04
2024-03-25T03:58:47.147Z,67.15
2024-03-25T04:01:20.599Z,66.75
2024-03-25T04:03:53.758Z,67.23
2024-03-25T04:06:26.338Z,67.14
2024-03-25T04:08:57.882Z,67.42
2024-03-25T04:11:29.436Z,67.35
2024-03-25T04:14:00.999Z,67.32
2024-03-25T04:16:33.212Z,67.34
2024-03-25T04:19:04.716Z,67.66
2024-03-25T04:21:36.271Z,67.41
2024-03-25T04:24:09.815Z,67.54
2024-03-25T04:26:41.239Z,67.56
2024-03-25T04:29:12.779Z,67.79
2024-03-25T04:31:44.542Z,67.39
2024-03-25T04:34:14.664Z,68.03
2024-03-25T04:36:46.216Z,67.81
2024-03-25T04:39:17.770Z,68.06
2024-03-25T04:41:49.943Z,67.57
2024-03-25T04:44:22.935Z,68.09
2024-03-25T04:46:54.486Z,67.96
2024-03-25T04:49:26.041Z,67.92
2024-03-25T04:51:57.597Z,67.83
2024-03-25T04:54:29.354Z,67.75
2024-03-25T04:57:00.927Z,67.74
2024-03-25T04:59:32.474Z,67.82
2024-03-25T05:02:04.605Z,68.10
2024-03-25T05:04:36.396Z,67.83
2024-03-25T05:07:06.516Z,67.80
2024-03-25T05:09:38.071Z,68.03
2024-03-25T05:12:10.381Z,67.89
2024-03-25T05:14:41.793Z,67.73
2024-03-25T05:17:13.350Z,68.11
2024-03-25T05:19:44.906Z,68.00
2024-03-25T05:22:16.464Z,68.12
2024-03-25T05:24:47.745Z,67.82
2024-03-25T05:27:19.169Z,67.95
2024-03-25T05:29:51.125Z,68.18
2024-03-25T05:32:23.137Z,67.92
2024-03-25T05:34:55.071Z,68.10
2024-03-25T05:37:26.818Z,67.97
2024-03-25T05:39:56.730Z,67.97
2024-03-25T05:42:28.297Z,68.38
2024-03-25T05:45:01.274Z,68.25
2024-03-25T05:47:32.829Z,68.46
2024-03-25T05:50:06.481Z,68.15
2024-03-25T05:52:37.992Z,68.22
2024-03-25T05:55:11.099Z,68.15
2024-03-25T05:57:42.533Z,68.36
2024-03-25T06:00:16.564Z,68.18
2024-03-25T06:02:48.521Z,68.04
2024-03-25T06:05:20.068Z,68.03
2024-03-25T06:07:51.621Z,67.82
2024-03-25T06:10:21.964Z,67.90
2024-03-25T06:12:54.537Z,67.79
2024-03-25T06:15:26.508Z,67.85
2024-03-25T06:17:58.256Z,68.19
2024-03-25T06:20:29.809Z,67.97
2024-03-25T06:23:02.611Z,67.89
2024-03-25T06:25:34.764Z,68.10
2024-03-25T06:28:08.067Z,67.70
2024-03-25T06:30:57.535Z,67.68
2024-03-25T06:33:46.912Z,67.97
2024-03-25T06:36:19.822Z,67.87
2024-03-25T06:38:51.654Z,67.64
2024-03-25T06:41:23.221Z,67.81
2024-03-25T06:43:54.772Z,67.40
2024-03-25T06:46:26.316Z,67.40
2024-03-25T06:48:57.876Z,67.41
2024-03-25T06:51:30.044Z,67.36
2024-03-25T06:54:03.239Z,66.89
2024-03-25T06:56:34.802Z,66.79
2024-03-25T06:59:06.384Z,66.78
2024-03-25T07:01:37.902Z,66.78
2024-03-25T07:04:09.667Z,66.62
2024-03-25T07:06:42.447Z,66.65
2024-03-25T07:09:15.630Z,66.76
2024-03-25T07:11:48.578Z,66.93
2024-03-25T07:14:20.607Z,67.08
2024-03-25T07:16:52.152Z,67.14
2024-03-25T07:19:23.644Z,67.11
2024-03-25T07:21:55.260Z,67.07
2024-03-25T07:24:26.817Z,67.39
2024-03-25T07:26:58.367Z,67.16
2024-03-25T07:29:30.539Z,67.51
2024-03-25T07:32:01.889Z,67.65
2024-03-25T07:34:33.616Z,67.73
2024-03-25T07:37:05.923Z,67.72
2024-03-25T07:39:37.373Z,67.81
2024-03-25T07:42:09.440Z,67.83
2024-03-25T07:44:40.892Z,67.73
2024-03-25T07:47:12.538Z,67.75
2024-03-25T07:49:44.014Z,67.92
2024-03-25T07:52:16.120Z,67.67
2024-03-25T07:54:48.553Z,67.83
2024-03-25T07:57:20.821Z,68.01
2024-03-25T07:59:52.694Z,67.95
2024-03-25T08:02:24.241Z,67.80
2024-03-25T08:04:56.410Z,68.08
2024-03-25T08:07:27.969Z,68.05
2024-03-25T08:09:59.718Z,67.93
2024-03-25T08:12:31.479Z,67.83
2024-03-25T08:15:03.059Z,67.58
2024-03-25T08:17:34.941Z,67.54
2024-03-25T08:20:09.524Z,67.86
2024-03-25T08:22:40.981Z,68.01
2024-03-25T08:25:13.214Z,68.40
2024-03-25T08:27:44.700Z,68.77
2024-03-25T08:30:16.970Z,68.73
2024-03-25T08:32:48.428Z,68.41
2024-03-25T08:35:19.980Z,68.44
2024-03-25T08:37:50.126Z,68.53
2024-03-25T08:40:21.863Z,68.51
2024-03-25T08:42:53.713Z,68.28
2024-03-25T08:45:25.434Z,68.14
2024-03-25T08:47:55.501Z,68.21
2024-03-25T08:50:27.058Z,68.47
2024-03-25T08:52:57.181Z,68.61
2024-03-25T08:55:29.965Z,68.58
2024-03-25T08:58:01.521Z,68.37
2024-03-25T09:00:33.282Z,68.29
2024-03-25T09:03:03.402Z,68.32
2024-03-25T09:05:37.307Z,68.68
2024-03-25T09:08:12.897Z,68.78
2024-03-25T09:11:08.801Z,68.57
2024-03-25T09:13:40.549Z,68.26
2024-03-25T09:16:12.510Z,67.86
2024-03-25T09:18:44.073Z,67.85
2024-03-25T09:21:15.827Z,67.32
2024-03-25T09:23:47.380Z,67.07
2024-03-25T09:26:19.002Z,67.13
2024-03-25T09:28:49.069Z,67.09
2024-03-25T09:31:20.614Z,67.19
2024-03-25T09:33:52.169Z,67.21
2024-03-25T09:36:23.727Z,67.16
2024-03-25T09:38:56.969Z,66.46
2024-03-25T09:41:30.950Z,66.01
2024-03-25T09:44:05.357Z,65.70
2024-03-25T09:46:38.561Z,65.75
2024-03-25T09:49:11.130Z,65.48
2024-03-25T09:51:42.684Z,65.44
2024-03-25T09:54:14.443Z,64.93
2024-03-25T09:56:44.572Z,64.93
2024-03-25T09:59:18.142Z,64.63
2024-03-25T10:01:49.759Z,64.42
2024-03-25T10:04:19.867Z,63.83
2024-03-25T10:06:52.284Z,63.75
2024-03-25T10:09:24.487Z,64.11
2024-03-25T10:11:55.963Z,63.49
2024-03-25T10:14:26.475Z,62.96
2024-03-25T10:16:56.591Z,62.97
2024-03-25T10:19:29.188Z,62.49
2024-03-25T10:22:07.221Z,62.26
2024-03-25T10:24:43.755Z,62.70
2024-03-25T10:27:21.880Z,62.94
2024-03-25T10:29:56.889Z,62.65
2024-03-25T10:32:30.141Z,62.95
2024-03-25T10:35:02.317Z,62.73
2024-03-25T10:37:35.597Z,62.47
2024-03-25T10:40:13.977Z,62.77
2024-03-25T10:42:49.981Z,62.50
2024-03-25T10:45:22.415Z,62.40
2024-03-25T10:47:53.964Z,62.05
2024-03-25T10:50:31.304Z,62.32
2024-03-25T10:53:04.673Z,61.93
2024-03-25T10:55:39.912Z,61.88
2024-03-25T10:58:12.432Z,61.99
2024-03-25T11:00:45.581Z,62.55
2024-03-25T11:03:17.894Z,63.23
2024-03-25T11:05:49.616Z,63.51
2024-03-25T11:08:22.495Z,63.07
2024-03-25T11:10:54.152Z,62.75
2024-03-25T11:13:25.700Z,61.47
2024-03-25T11:16:00.098Z,60.86
2024-03-25T11:18:35.092Z,60.60
2024-03-25T11:21:11.027Z,59.29
2024-03-25T11:23:46.262Z,58.74
2024-03-25T11:26:27.441Z,56.89
2024-03-25T11:28:58.997Z,56.35
2024-03-25T11:31:34.177Z,55.93
2024-03-25T11:34:09.379Z,55.57
2024-03-25T11:36:41.650Z,55.11
2024-03-25T11:39:14.369Z,55.38
2024-03-25T11:41:47.217Z,55.57
2024-03-25T11:44:20.823Z,55.86
2024-03-25T11:46:54.843Z,57.21
2024-03-25T11:49:27.194Z,57.57
2024-03-25T11:52:01.422Z,57.55
2024-03-25T11:54:32.984Z,57.54
2024-03-25T11:57:05.089Z,58.08
2024-03-25T11:59:36.919Z,58.21
2024-03-25T12:02:10.802Z,58.50
2024-03-25T12:04:46.233Z,59.22
2024-03-25T12:07:18.542Z,60.16
2024-03-25T12:10:08.324Z,61.30
2024-03-25T12:12:40.494Z,61.48
2024-03-25T12:15:12.621Z,62.20
2024-03-25T12:17:44.091Z,62.53
2024-03-25T12:20:14.787Z,63.22
2024-03-25T12:22:47.564Z,63.43
2024-03-25T12:25:23.387Z,63.63
2024-03-25T12:27:54.676Z,64.91
2024-03-25T12:30:26.323Z,64.93
2024-03-25T12:32:59.296Z,64.71
2024-03-25T12:35:37.394Z,61.44
2024-03-25T12:38:09.152Z,57.28
2024-03-25T12:40:40.715Z,53.83
2024-03-25T12:43:22.347Z,51.97
2024-03-25T12:45:59.769Z,50.86
2024-03-25T12:48:33.191Z,50.12
2024-03-25T12:51:05.988Z,50.02
2024-03-25T12:53:37.532Z,50.92
2024-03-25T12:56:10.127Z,50.84
2024-03-25T12:58:41.669Z,51.95
2024-03-25T13:01:13.639Z,51.61
2024-03-25T13:03:45.195Z,51.95
2024-03-25T13:06:16.743Z,52.82
2024-03-25T13:08:46.680Z,53.72
2024-03-25T13:11:18.434Z,54.59
2024-03-25T13:13:49.975Z,55.50
2024-03-25T13:16:21.526Z,56.72
2024-03-25T13:18:53.079Z,57.06
2024-03-25T13:21:26.717Z,57.59
2024-03-25T13:23:58.241Z,58.48
2024-03-25T13:26:28.360Z,59.70
2024-03-25T13:29:00.019Z,60.20
2024-03-25T13:31:32.909Z,60.18
2024-03-25T13:34:04.664Z,61.06
2024-03-25T13:36:36.607Z,61.71
2024-03-25T13:39:09.749Z,62.08
2024-03-25T13:41:41.787Z,62.37
2024-03-25T13:44:13.344Z,62.13
2024-03-25T13:46:43.467Z,61.27
2024-03-25T13:49:16.457Z,61.27
2024-03-25T13:51:48.662Z,60.96
2024-03-25T13:54:20.180Z,60.11
2024-03-25T13:56:50.105Z,60.28
2024-03-25T13:59:22.083Z,60.30
2024-03-25T14:01:55.258Z,60.30
2024-03-25T14:04:28.040Z,60.03
2024-03-25T14:06:59.597Z,59.77
2024-03-25T14:09:30.335Z,59.67
2024-03-25T14:12:02.301Z,59.96
2024-03-25T14:14:33.855Z,59.76
2024-03-25T14:17:03.978Z,59.48
2024-03-25T14:19:35.533Z,59.85
2024-03-25T14:22:07.084Z,60.41
2024-03-25T14:24:38.641Z,60.50
2024-03-25T14:27:10.399Z,60.22
2024-03-25T14:29:41.963Z,60.02
2024-03-25T14:32:13.514Z,60.59
2024-03-25T14:34:45.683Z,59.74
2024-03-25T14:37:18.269Z,59.57
2024-03-25T14:39:50.446Z,59.28
2024-03-25T14:42:21.994Z,59.40
2024-03-25T14:44:53.546Z,58.88
2024-03-25T14:47:25.144Z,58.70
2024-03-25T14:49:56.654Z,57.78
2024-03-25T14:52:28.212Z,57.53
2024-03-25T14:55:03.468Z,56.69
2024-03-25T14:57:35.219Z,55.49
2024-03-25T15:00:08.498Z,55.56
2024-03-25T15:02:40.158Z,55.55
2024-03-25T15:05:12.120Z,55.56
2024-03-25T15:07:43.714Z,55.68
2024-03-25T15:10:15.238Z,55.64
2024-03-25T15:12:48.427Z,55.49
2024-03-25T15:15:20.161Z,55.26
2024-03-25T15:17:51.908Z,54.75
2024-03-25T15:20:23.598Z,54.08
2024-03-25T15:22:56.694Z,53.52
2024-03-25T15:25:28.750Z,52.87
2024-03-25T15:28:00.212Z,52.79
2024-03-25T15:30:32.785Z,53.04
2024-03-25T15:33:04.575Z,52.84
2024-03-25T15:35:36.111Z,53.14
2024-03-25T15:38:08.272Z,53.46
2024-03-25T15:40:39.826Z,53.59
2024-03-25T15:43:11.382Z,54.00
2024-03-25T15:45:42.958Z,54.73
2024-03-25T15:48:14.555Z,55.52
2024-03-25T15:50:47.277Z,55.75
2024-03-25T15:53:19.037Z,56.31
2024-03-25T15:55:52.281Z,56.69
2024-03-25T15:58:23.791Z,57.21
2024-03-25T16:00:53.915Z,57.60
2024-03-25T16:03:26.819Z,58.75
2024-03-25T16:05:58.449Z,60.39
2024-03-25T16:08:28.650Z,61.81
2024-03-25T16:11:00.540Z,62.05
2024-03-25T16:13:33.542Z,61.67
2024-03-25T16:16:08.132Z,62.43
2024-03-25T16:18:40.116Z,63.43
2024-03-25T16:21:19.652Z,65.06
2024-03-25T16:23:51.276Z,65.76
2024-03-25T16:26:24.734Z,65.80
2024-03-25T16:28:56.192Z,65.27
2024-03-25T16:31:27.538Z,64.37
2024-03-25T16:33:59.720Z,64.26
2024-03-25T16:36:31.242Z,63.96
2024-03-25T16:39:04.723Z,63.42
2024-03-25T16:41:36.095Z,63.60
2024-03-25T16:44:07.587Z,64.31
2024-03-25T16:46:38.974Z,63.76
2024-03-25T16:49:10.358Z,63.96
2024-03-25T16:51:41.736Z,64.19
2024-03-25T16:54:13.170Z,64.20
2024-03-25T16:56:44.516Z,64.55
2024-03-25T16:59:15.874Z,64.49
2024-03-25T17:01:48.057Z,64.61
2024-03-25T17:04:19.797Z,65.09
2024-03-25T17:06:51.195Z,66.03
2024-03-25T17:09:22.585Z,66.77
2024-03-25T17:11:54.138Z,67.26
2024-03-25T17:14:26.027Z,66.90
2024-03-25T17:17:21.523Z,66.69
2024-03-25T17:19:49.492Z,67.16
2024-03-25T17:22:20.776Z,67.00
2024-03-25T17:24:53.812Z,66.81
2024-03-25T17:27:25.584Z,67.12
2024-03-25T17:29:57.392Z,66.96
2024-03-25T17:32:28.848Z,67.15
2024-03-25T17:35:00.262Z,67.22
2024-03-25T17:37:32.237Z,67.30
2024-03-25T17:40:05.217Z,67.37
2024-03-25T17:42:36.521Z,67.79
2024-03-25T17:45:08.897Z,67.60
2024-03-25T17:47:40.218Z,67.80
2024-03-25T17:50:12.823Z,67.82
2024-03-25T17:52:44.520Z,67.85
2024-03-25T17:55:14.419Z,68.30
2024-03-25T17:57:45.751Z,68.02
2024-03-25T18:00:17.652Z,67.89
2024-03-25T18:02:49.888Z,67.89
2024-03-25T18:05:21.314Z,68.00
2024-03-25T18:07:53.431Z,68.02
2024-03-25T18:10:24.834Z,68.00
2024-03-25T18:12:56.222Z,68.00
2024-03-25T18:15:28.000Z,68.02
2024-03-25T18:17:59.516Z,67.95
2024-03-25T18:20:30.854Z,67.93
2024-03-25T18:23:02.198Z,68.05
2024-03-25T18:25:33.700Z,68.06
2024-03-25T18:28:05.680Z,68.34
2024-03-25T18:30:37.427Z,68.56
2024-03-25T18:33:07.593Z,68.66
2024-03-25T18:35:41.050Z,68.66
2024-03-25T18:38:12.544Z,68.51
2024-03-25T18:40:44.457Z,68.46
2024-03-25T18:43:15.884Z,68.35
2024-03-25T18:45:47.235Z,68.65
2024-03-25T18:48:19.182Z,68.85
2024-03-25T18:50:50.579Z,68.82
2024-03-25T18:53:21.944Z,68.91
2024-03-25T18:55:53.316Z,69.03
2024-03-25T18:58:24.640Z,69.16
2024-03-25T19:00:55.966Z,69.22
2024-03-25T19:03:27.324Z,69.19
2024-03-25T19:05:58.713Z,69.47
2024-03-25T19:08:30.072Z,69.49
2024-03-25T19:11:01.470Z,69.36
2024-03-25T19:13:34.162Z,69.15
2024-03-25T19:16:06.520Z,69.23
2024-03-25T19:18:37.825Z,69.43
2024-03-25T19:21:09.183Z,69.40
2024-03-25T19:23:40.639Z,69.20
2024-03-25T19:26:12.112Z,69.56
2024-03-25T19:28:43.469Z,69.62
2024-03-25T19:31:14.835Z,69.53
2024-03-25T19:33:46.482Z,69.61
2024-03-25T19:36:17.860Z,69.73
2024-03-25T19:38:49.185Z,69.70
2024-03-25T19:41:21.378Z,69.92
2024-03-25T19:43:55.018Z,69.80
2024-03-25T19:46:26.374Z,69.78
2024-03-25T19:48:57.670Z,70.02
2024-03-25T19:51:29.086Z,69.89
2024-03-25T19:54:00.483Z,69.84
2024-03-25T19:56:31.848Z,70.00
2024-03-25T19:59:03.143Z,70.02
2024-03-25T20:01:35.034Z,70.00
2024-03-25T20:04:06.787Z,70.19
2024-03-25T20:06:36.648Z,70.16
2024-03-25T20:09:08.009Z,70.36
2024-03-25T20:11:39.608Z,70.62
2024-03-25T20:14:10.924Z,70.53
2024-03-25T20:16:42.744Z,70.42
2024-03-25T20:19:14.887Z,70.51
2024-03-25T20:21:46.273Z,70.50
2024-03-25T20:24:17.622Z,70.53
2024-03-25T20:26:48.974Z,70.49
2024-03-25T20:29:20.509Z,70.30
2024-03-25T20:31:52.996Z,70.35
2024-03-25T20:34:24.355Z,70.31
2024-03-25T20:36:55.745Z,70.31
2024-03-25T20:39:27.096Z,70.06
2024-03-25T20:41:58.479Z,70.18
2024-03-25T20:44:29.841Z,70.52
2024-03-25T20:47:01.163Z,70.52
2024-03-25T20:49:32.489Z,70.68
2024-03-25T20:52:03.810Z,70.85
2024-03-25T20:54:35.303Z,70.81
2024-03-25T20:57:07.304Z,70.72
2024-03-25T20:59:38.767Z,70.55
2024-03-25T21:02:10.092Z,70.59
2024-03-25T21:04:41.797Z,70.83
2024-03-25T21:07:11.675Z,71.06
2024-03-25T21:09:42.977Z,71.09
2024-03-25T21:12:15.708Z,71.03
2024-03-25T21:14:47.083Z,71.04
2024-03-25T21:17:19.051Z,70.60
2024-03-25T21:19:50.362Z,70.70
2024-03-25T21:22:23.136Z,70.70
2024-03-25T21:24:54.421Z,71.06
2024-03-25T21:27:25.768Z,70.53
2024-03-25T21:29:57.046Z,70.67
2024-03-25T21:32:27.767Z,70.95
2024-03-25T21:34:59.030Z,71.13
2024-03-25T21:37:30.397Z,71.34
2024-03-25T21:40:01.865Z,71.54
2024-03-25T21:42:33.595Z,71.52
2024-03-25T21:45:03.488Z,71.56
2024-03-25T21:47:35.025Z,71.63
2024-03-25T21:50:07.189Z,71.56
2024-03-25T21:52:38.559Z,71.69
2024-03-25T21:55:10.736Z,71.81
2024-03-25T21:57:42.135Z,71.71
2024-03-25T22:00:16.289Z,71.64
2024-03-25T22:02:47.681Z,71.28
2024-03-25T22:05:19.182Z,71.44
2024-03-25T22:07:50.632Z,71.54
2024-03-25T22:10:21.979Z,71.49
2024-03-25T22:12:53.311Z,71.62
2024-03-25T22:15:24.647Z,71.85
2024-03-25T22:17:56.348Z,71.74
2024-03-25T22:20:26.215Z,71.75
2024-03-25T22:22:57.682Z,71.80
2024-03-25T22:25:29.017Z,72.06
2024-03-25T22:28:00.397Z,72.19
2024-03-25T22:30:31.807Z,72.12
2024-03-25T22:33:03.182Z,72.27
2024-03-25T22:35:34.491Z,72.29
2024-03-25T22:38:06.064Z,72.41
2024-03-25T22:40:40.021Z,72.41
2024-03-25T22:43:11.401Z,72.47
2024-03-25T22:45:42.790Z,72.83
2024-03-25T22:48:14.164Z,72.62
2024-03-25T22:50:56.266Z,72.88
2024-03-25T22:53:28.788Z,73.01
2024-03-25T22:56:06.115Z,73.24
2024-03-25T22:58:38.420Z,73.48
2024-03-25T23:01:11.617Z,73.51
2024-03-25T23:03:42.973Z,73.32
2024-03-25T23:06:14.247Z,73.39
2024-03-25T23:08:45.630Z,73.51
2024-03-25T23:11:17.061Z,73.41
2024-03-25T23:13:48.382Z,73.38
2024-03-25T23:16:19.730Z,73.27
2024-03-25T23:18:51.515Z,73.35
2024-03-25T23:21:21.397Z,73.57
2024-03-25T23:23:52.801Z,73.63
2024-03-25T23:26:24.474Z,73.72
2024-03-25T23:28:57.184Z,73.35
2024-03-25T23:31:28.553Z,73.50
2024-03-25T23:33:59.895Z,73.43
2024-03-25T23:36:31.249Z,73.37
2024-03-25T23:39:04.408Z,73.54
2024-03-25T23:41:35.731Z,73.70
2024-03-25T23:44:07.430Z,73.54
2024-03-25T23:46:38.799Z,73.67
2024-03-25T23:49:10.123Z,73.30
2024-03-25T23:51:41.410Z,73.48
2024-03-25T23:54:14.861Z,73.23
2024-03-25T23:56:46.161Z,73.32
2024-03-25T23:59:17.555Z,73.53
